Time;durP1;ratioP1;P1;durP2;ratioP2;P2;SDS_P1;SDS_P2;PMS_P1;PMS_P2;Temp;Humidity;BMP_temperature;BMP_pressure;BME280_temperature;BME280_humidity;BME280_pressure;Samples;Min_cycle;Max_cycle;Signal;HPM_P1;HPM_P2
2023/12/04 00:02:17;;;;;;;;;;;-3276.20;77.40;;;;;;5046216;28;19925;-62
2023/12/04 00:04:50;;;;;;;;;;;-3276.10;77.70;;;;;;5046162;28;20007;-62
2023/12/04 00:07:23;;;;;;;;;;;-3276.20;77.90;;;;;;5048789;28;20342;-63
2023/12/04 00:09:56;;;;;;;;;;;-3276.20;77.70;;;;;;5031760;28;20398;-62
2023/12/04 00:12:30;;;;;;;;;;;-3276.20;77.80;;;;;;5047025;28;20269;-62
2023/12/04 00:15:03;;;;;;;;;;;-3276.20;77.70;;;;;;5041544;28;19998;-62
2023/12/04 00:17:39;;;;;;;;;;;-3276.20;77.90;;;;;;5048144;28;20019;-63
2023/12/04 00:20:12;;;;;;;;;;;-3276.20;77.90;;;;;;5048340;28;19935;-63
2023/12/04 00:22:38;;;;;;;;;;;-3276.30;77.80;;;;;;5047150;28;19933;-63
2023/12/04 00:25:12;;;;;;;;;;;-3276.20;77.70;;;;;;5046492;28;19952;-62
2023/12/04 00:27:46;;;;;;;;;;;-3276.30;77.40;;;;;;5047892;28;19936;-63
2023/12/04 00:30:20;;;;;;;;;;;-3276.30;77.30;;;;;;5039659;28;19928;-63
2023/12/04 00:32:53;;;;;;;;;;;-3276.30;77.50;;;;;;5046698;28;19929;-62
2023/12/04 00:35:26;;;;;;;;;;;-3276.20;77.40;;;;;;5047138;28;19971;-62
2023/12/04 00:37:59;;;;;;;;;;;-3276.20;77.40;;;;;;5049172;28;20000;-63
2023/12/04 00:40:32;;;;;;;;;;;-3276.20;77.60;;;;;;5040108;28;19971;-62
2023/12/04 00:43:06;;;;;;;;;;;-3276.20;77.40;;;;;;5047663;28;19935;-62
2023/12/04 00:45:40;;;;;;;;;;;-3276.10;77.40;;;;;;5049958;28;19939;-62
2023/12/04 00:48:13;;;;;;;;;;;-3276.10;77.30;;;;;;5043062;28;20023;-63
2023/12/04 00:50:46;;;;;;;;;;;-3276.10;77.50;;;;;;5051522;28;19936;-61
2023/12/04 00:53:19;;;;;;;;;;;-3276.10;77.30;;;;;;5051223;28;19924;-62
2023/12/04 00:55:52;;;;;;;;;;;-3276.10;77.50;;;;;;5044872;28;20438;-63
2023/12/04 00:58:26;;;;;;;;;;;-3276.10;77.70;;;;;;5051119;28;20401;-61
2023/12/04 01:00:59;;;;;;;;;;;-3276.10;77.80;;;;;;5049726;28;19925;-62
2023/12/04 01:03:33;;;;;;;;;;;-3276.20;77.60;;;;;;5050292;28;19967;-61
2023/12/04 01:06:06;;;;;;;;;;;-3276.10;77.60;;;;;;5049950;28;19990;-63
2023/12/04 01:08:39;;;;;;;;;;;-3276.20;77.70;;;;;;5049068;28;19998;-61
2023/12/04 01:11:12;;;;;;;;;;;-3276.20;77.40;;;;;;5051089;28;20010;-67
2023/12/04 01:13:49;;;;;;;;;;;-3276.10;77.50;;;;;;5050964;28;20010;-65
2023/12/04 01:16:22;;;;;;;;;;;-3276.10;77.50;;;;;;5049639;28;19929;-66
2023/12/04 01:18:55;;;;;;;;;;;-3276.20;77.40;;;;;;5049805;28;19933;-66
2023/12/04 01:21:28;;;;;;;;;;;-3276.10;77.40;;;;;;5050937;28;20429;-66
2023/12/04 01:24:01;;;;;;;;;;;-3276.20;77.50;;;;;;5048027;28;19928;-65
2023/12/04 01:26:34;;;;;;;;;;;-3276.10;77.30;;;;;;5051249;28;19975;-65
2023/12/04 01:29:08;;;;;;;;;;;-3276.00;77.40;;;;;;5042993;28;19929;-64
2023/12/04 01:31:42;;;;;;;;;;;-3276.10;77.40;;;;;;5049359;28;20006;-65
2023/12/04 01:34:15;;;;;;;;;;;-3276.00;77.60;;;;;;5049732;28;20020;-65
2023/12/04 01:36:48;;;;;;;;;;;-3276.00;77.50;;;;;;5050742;28;19952;-65
2023/12/04 01:39:21;;;;;;;;;;;-3276.00;77.60;;;;;;5050025;28;19943;-66
2023/12/04 01:41:54;;;;;;;;;;;-3276.00;77.60;;;;;;5049080;28;19925;-65
2023/12/04 01:44:28;;;;;;;;;;;-3276.00;77.60;;;;;;5048920;28;19936;-64
2023/12/04 01:47:02;;;;;;;;;;;-3275.90;77.70;;;;;;5047229;28;19987;-66
2023/12/04 01:49:35;;;;;;;;;;;-3275.90;77.70;;;;;;5051427;28;19932;-66
2023/12/04 01:52:02;;;;;;;;;;;-3275.90;77.70;;;;;;5050643;28;20039;-65
2023/12/04 01:54:35;;;;;;;;;;;-3275.90;77.50;;;;;;5050644;28;20364;-64
2023/12/04 01:57:09;;;;;;;;;;;-3275.80;77.90;;;;;;5049430;28;19995;-66
2023/12/04 01:59:46;;;;;;;;;;;-3275.90;77.90;;;;;;5050632;28;20074;-65
2023/12/04 02:02:19;;;;;;;;;;;-3275.90;77.80;;;;;;5043711;28;19928;-65
2023/12/04 02:04:54;;;;;;;;;;;-3275.80;77.90;;;;;;5045659;28;19932;-65
2023/12/04 02:07:28;;;;;;;;;;;-3275.90;77.90;;;;;;5020418;28;19940;-67
2023/12/04 02:10:01;;;;;;;;;;;-3275.90;77.80;;;;;;5050149;28;19929;-66
2023/12/04 02:12:34;;;;;;;;;;;-3275.90;78.10;;;;;;5051254;28;19935;-66
2023/12/04 02:15:09;;;;;;;;;;;-3275.80;77.90;;;;;;5048331;28;19935;-66
2023/12/04 02:17:46;;;;;;;;;;;-3275.90;78.10;;;;;;5049696;28;19935;-66
2023/12/04 02:20:20;;;;;;;;;;;-3275.90;78.00;;;;;;5048966;28;20375;-72
2023/12/04 02:22:53;;;;;;;;;;;-3275.80;78.00;;;;;;5046164;28;19935;-70
2023/12/04 02:25:27;;;;;;;;;;;-3275.90;78.10;;;;;;5050446;28;19932;-69
2023/12/04 02:28:02;;;;;;;;;;;-3275.90;78.00;;;;;;5040300;28;19936;-68
2023/12/04 02:30:36;;;;;;;;;;;-3275.80;77.90;;;;;;5049528;28;19964;-69
2023/12/04 02:33:11;;;;;;;;;;;-3275.80;78.00;;;;;;5049971;28;19928;-70
2023/12/04 02:35:46;;;;;;;;;;;-3275.80;78.10;;;;;;5049889;28;20447;-68
2023/12/04 02:38:19;;;;;;;;;;;-3275.90;78.10;;;;;;5051061;28;20295;-70
2023/12/04 02:40:53;;;;;;;;;;;-3275.90;78.20;;;;;;5044705;28;20367;-71
2023/12/04 02:43:27;;;;;;;;;;;-3275.90;78.10;;;;;;5050755;28;20371;-69
2023/12/04 02:46:00;;;;;;;;;;;-3275.90;78.00;;;;;;5046176;28;19929;-69
2023/12/04 02:48:33;;;;;;;;;;;-3275.80;77.80;;;;;;5049388;28;20318;-69
2023/12/04 02:51:06;;;;;;;;;;;-3275.80;78.00;;;;;;5049445;28;19968;-70
2023/12/04 02:53:45;;;;;;;;;;;-3275.80;77.90;;;;;;5042958;28;19925;-69
2023/12/04 02:56:20;;;;;;;;;;;-3275.80;78.10;;;;;;5029724;28;20386;-70
2023/12/04 02:58:54;;;;;;;;;;;-3275.90;78.20;;;;;;5042356;28;19924;-69
2023/12/04 03:01:27;;;;;;;;;;;-3275.90;78.10;;;;;;5047525;28;19925;-69
2023/12/04 03:04:06;;;;;;;;;;;-3275.90;78.00;;;;;;5048390;28;19933;-70
2023/12/04 03:06:40;;;;;;;;;;;-3275.90;78.00;;;;;;5047051;28;19974;-69
2023/12/04 03:09:13;;;;;;;;;;;-3275.90;77.80;;;;;;5046572;28;19939;-72
2023/12/04 03:11:47;;;;;;;;;;;-3275.90;77.70;;;;;;5048853;28;19928;-69
2023/12/04 03:14:25;;;;;;;;;;;-3275.90;77.80;;;;;;5044028;28;19958;-69
2023/12/04 03:16:58;;;;;;;;;;;-3275.80;77.90;;;;;;5047840;28;19925;-70
2023/12/04 03:19:31;;;;;;;;;;;-3275.90;77.80;;;;;;5038741;28;19932;-69
2023/12/04 03:22:04;;;;;;;;;;;-3275.80;77.60;;;;;;5047370;28;19928;-70
2023/12/04 03:24:37;;;;;;;;;;;-3275.80;77.70;;;;;;5048553;28;19925;-70
2023/12/04 03:27:11;;;;;;;;;;;-3275.90;77.60;;;;;;5048426;28;19931;-70
2023/12/04 03:29:45;;;;;;;;;;;-3275.90;77.60;;;;;;5048685;28;20039;-70
2023/12/04 03:32:18;;;;;;;;;;;-3275.90;77.60;;;;;;5047134;28;19932;-66
2023/12/04 03:34:51;;;;;;;;;;;-3275.90;77.60;;;;;;5046382;28;19925;-66
2023/12/04 03:37:24;;;;;;;;;;;-3275.90;77.60;;;;;;5049389;28;19925;-66
2023/12/04 03:39:57;;;;;;;;;;;-3275.80;77.50;;;;;;5046644;28;19924;-67
2023/12/04 03:42:31;;;;;;;;;;;-3275.80;77.80;;;;;;5048700;28;19931;-66
2023/12/04 03:45:05;;;;;;;;;;;-3275.90;77.80;;;;;;5021509;28;19928;-66
2023/12/04 03:47:39;;;;;;;;;;;-3275.90;77.90;;;;;;5047702;28;19944;-67
2023/12/04 03:50:12;;;;;;;;;;;-3275.90;77.80;;;;;;5047765;28;19925;-66
2023/12/04 03:52:39;;;;;;;;;;;-3275.90;77.70;;;;;;5046294;28;19924;-66
2023/12/04 03:55:12;;;;;;;;;;;-3275.90;77.60;;;;;;5049618;28;19956;-67
2023/12/04 03:57:46;;;;;;;;;;;-3275.90;77.70;;;;;;5049089;28;19975;-66
2023/12/04 04:00:20;;;;;;;;;;;-3275.90;77.60;;;;;;5048912;28;19928;-66
2023/12/04 04:02:54;;;;;;;;;;;-3275.90;77.50;;;;;;5048023;28;19933;-67
2023/12/04 04:05:28;;;;;;;;;;;-3275.90;77.50;;;;;;5048962;28;20012;-67
2023/12/04 04:08:01;;;;;;;;;;;-3275.80;77.80;;;;;;5044595;28;19955;-66
2023/12/04 04:10:34;;;;;;;;;;;-3275.80;77.70;;;;;;5047206;28;19931;-66
2023/12/04 04:13:08;;;;;;;;;;;-3275.90;77.70;;;;;;5046746;28;19925;-66
2023/12/04 04:15:42;;;;;;;;;;;-3275.80;77.40;;;;;;5047041;28;19960;-67
2023/12/04 04:18:21;;;;;;;;;;;-3275.80;77.40;;;;;;5049574;28;19932;-67
2023/12/04 04:20:54;;;;;;;;;;;-3275.80;77.40;;;;;;5051860;28;19925;-67
2023/12/04 04:23:30;;;;;;;;;;;-3275.80;77.60;;;;;;5052434;28;19925;-66
2023/12/04 04:26:03;;;;;;;;;;;-3275.80;77.60;;;;;;5051157;28;19944;-66
2023/12/04 04:28:37;;;;;;;;;;;-3275.80;77.70;;;;;;5053404;28;19928;-66
2023/12/04 04:31:11;;;;;;;;;;;-3275.90;77.70;;;;;;5051814;28;20002;-65
2023/12/04 04:33:44;;;;;;;;;;;-3275.80;77.50;;;;;;5051145;28;19929;-65
2023/12/04 04:36:11;;;;;;;;;;;-3275.80;77.60;;;;;;5053382;28;19932;-65
2023/12/04 04:38:44;;;;;;;;;;;-3275.80;77.70;;;;;;5052342;28;19971;-66
2023/12/04 04:41:13;;;;;;;;;;;-3275.90;77.70;;;;;;5051980;28;19929;-71
2023/12/04 04:43:48;;;;;;;;;;;-3275.90;77.60;;;;;;5048451;28;19986;-72
2023/12/04 04:46:21;;;;;;;;;;;-3275.90;77.50;;;;;;5049167;28;20287;-73
2023/12/04 04:48:54;;;;;;;;;;;-3275.90;77.50;;;;;;5049135;28;19924;-73
2023/12/04 04:51:34;;;;;;;;;;;-3275.80;77.30;;;;;;5048650;28;19968;-72
2023/12/04 04:54:07;;;;;;;;;;;-3275.90;77.50;;;;;;5052197;28;20375;-71
2023/12/04 04:56:47;;;;;;;;;;;-3275.90;77.50;;;;;;5026766;28;20435;-72
2023/12/04 04:59:21;;;;;;;;;;;-3275.80;77.40;;;;;;5051277;28;19940;-72
2023/12/04 05:01:55;;;;;;;;;;;-3275.90;77.60;;;;;;5050319;28;19932;-72
2023/12/04 05:04:28;;;;;;;;;;;-3275.90;77.40;;;;;;5049622;28;20015;-71
2023/12/04 05:07:01;;;;;;;;;;;-3275.90;77.50;;;;;;5052250;28;19924;-72
2023/12/04 05:09:34;;;;;;;;;;;-3275.80;77.50;;;;;;5049209;28;19925;-72
2023/12/04 05:12:07;;;;;;;;;;;-3275.80;77.30;;;;;;5051744;28;19931;-71
2023/12/04 05:14:41;;;;;;;;;;;-3275.80;77.40;;;;;;5053101;28;19956;-73
2023/12/04 05:17:18;;;;;;;;;;;-3275.90;77.50;;;;;;5051991;28;19929;-72
2023/12/04 05:19:51;;;;;;;;;;;-3275.80;77.50;;;;;;5052802;28;19986;-72
2023/12/04 05:22:24;;;;;;;;;;;-3275.70;77.60;;;;;;5029679;28;20287;-72
2023/12/04 05:24:57;;;;;;;;;;;-3275.80;77.50;;;;;;5050535;28;19929;-71
2023/12/04 05:27:30;;;;;;;;;;;-3275.80;77.50;;;;;;5050504;28;19929;-72
2023/12/04 05:30:05;;;;;;;;;;;-3275.80;77.30;;;;;;5049758;28;19928;-72
2023/12/04 05:32:38;;;;;;;;;;;-3275.70;77.30;;;;;;5051830;28;19936;-71
2023/12/04 05:35:11;;;;;;;;;;;-3275.70;77.40;;;;;;5051572;28;19931;-71
2023/12/04 05:37:45;;;;;;;;;;;-3275.70;77.40;;;;;;5051581;28;19925;-72
2023/12/04 05:40:18;;;;;;;;;;;-3275.70;77.50;;;;;;5049942;28;19929;-72
2023/12/04 05:42:51;;;;;;;;;;;-3275.80;77.50;;;;;;5047326;28;19943;-72
2023/12/04 05:45:25;;;;;;;;;;;-3275.80;77.50;;;;;;5050486;28;20387;-73
2023/12/04 05:47:59;;;;;;;;;;;-3275.80;77.40;;;;;;5050466;28;19925;-72
2023/12/04 05:50:32;;;;;;;;;;;-3275.80;77.30;;;;;;5051697;28;19935;-72
2023/12/04 05:53:06;;;;;;;;;;;-3275.80;77.20;;;;;;5050609;28;19925;-72
2023/12/04 05:55:40;;;;;;;;;;;-3275.80;77.30;;;;;;5052144;28;19925;-72
2023/12/04 05:58:13;;;;;;;;;;;-3275.80;77.40;;;;;;5050810;28;19933;-72
2023/12/04 06:00:47;;;;;;;;;;;-3275.90;77.00;;;;;;5050857;28;19929;-73
2023/12/04 06:03:21;;;;;;;;;;;-3275.90;77.10;;;;;;5051426;28;19929;-71
2023/12/04 06:05:54;;;;;;;;;;;-3275.80;77.10;;;;;;5050448;28;20439;-72
2023/12/04 06:08:27;;;;;;;;;;;-3275.90;77.10;;;;;;5051530;28;19975;-71
2023/12/04 06:11:00;;;;;;;;;;;-3275.90;76.90;;;;;;5050069;28;19928;-71
2023/12/04 06:13:34;;;;;;;;;;;-3275.90;76.90;;;;;;5051100;28;19970;-72
2023/12/04 06:16:09;;;;;;;;;;;-3275.90;76.90;;;;;;5048602;28;19924;-72
2023/12/04 06:18:42;;;;;;;;;;;-3275.90;76.90;;;;;;5051326;28;19974;-72
2023/12/04 06:21:15;;;;;;;;;;;-3275.90;77.00;;;;;;5051233;28;19935;-73
2023/12/04 06:23:48;;;;;;;;;;;-3275.90;77.10;;;;;;5050193;28;19935;-73
2023/12/04 06:26:21;;;;;;;;;;;-3275.90;77.00;;;;;;5051448;28;19990;-71
2023/12/04 06:28:54;;;;;;;;;;;-3275.90;77.00;;;;;;5048393;28;20023;-72
2023/12/04 06:31:29;;;;;;;;;;;-3275.90;76.90;;;;;;5047415;28;19932;-71
2023/12/04 06:34:02;;;;;;;;;;;-3275.90;77.00;;;;;;5050456;28;19925;-72
2023/12/04 06:36:38;;;;;;;;;;;-3275.90;76.90;;;;;;5050649;28;19929;-72
2023/12/04 06:39:15;;;;;;;;;;;-3275.90;76.90;;;;;;5049051;28;19925;-72
2023/12/04 06:41:48;;;;;;;;;;;-3275.90;76.90;;;;;;5050599;28;19929;-72
2023/12/04 06:44:22;;;;;;;;;;;-3275.90;76.80;;;;;;5050789;28;19925;-72
2023/12/04 06:47:00;;;;;;;;;;;-3275.90;76.80;;;;;;5049649;28;20295;-72
2023/12/04 06:49:33;;;;;;;;;;;-3275.90;76.80;;;;;;5049731;28;20004;-72
2023/12/04 06:52:07;;;;;;;;;;;-3275.90;76.90;;;;;;5048879;28;19929;-71
2023/12/04 06:54:40;;;;;;;;;;;-3275.90;76.80;;;;;;5051254;28;19925;-71
2023/12/04 06:57:14;;;;;;;;;;;-3275.90;76.80;;;;;;5050687;28;19933;-72
2023/12/04 06:59:47;;;;;;;;;;;-3275.90;76.80;;;;;;5050289;28;20032;-72
2023/12/04 07:02:21;;;;;;;;;;;-3275.90;76.90;;;;;;5050145;28;19931;-73
2023/12/04 07:04:55;;;;;;;;;;;-3275.90;77.00;;;;;;5049494;28;19929;-73
2023/12/04 07:07:22;;;;;;;;;;;-3275.80;77.00;;;;;;5050871;28;20335;-73
2023/12/04 07:09:55;;;;;;;;;;;-3275.90;77.00;;;;;;5048483;28;19935;-73
2023/12/04 07:12:28;;;;;;;;;;;-3275.90;76.80;;;;;;5032420;28;20328;-74
2023/12/04 07:15:01;;;;;;;;;;;-3275.80;76.90;;;;;;5050050;28;20687;-73
2023/12/04 07:17:29;;;;;;;;;;;-3275.80;77.10;;;;;;5047991;28;19955;-74
2023/12/04 07:20:02;;;;;;;;;;;-3275.90;77.20;;;;;;5046733;28;19978;-73
2023/12/04 07:22:35;;;;;;;;;;;-3275.80;77.10;;;;;;5046967;28;19940;-73
2023/12/04 07:25:08;;;;;;;;;;;-3275.80;77.00;;;;;;5047449;28;20019;-73
2023/12/04 07:27:35;;;;;;;;;;;-3275.80;77.10;;;;;;5046600;28;19924;-74
2023/12/04 07:30:08;;;;;;;;;;;-3275.80;77.10;;;;;;5046966;28;19931;-73
2023/12/04 07:32:43;;;;;;;;;;;-3275.80;77.00;;;;;;5049478;28;19932;-72
2023/12/04 07:35:17;;;;;;;;;;;-3275.80;76.90;;;;;;5048396;28;20560;-73
2023/12/04 07:37:51;;;;;;;;;;;-3275.90;77.10;;;;;;5023359;28;19987;-72
2023/12/04 07:40:24;;;;;;;;;;;-3275.90;77.00;;;;;;5049047;28;20039;-73
2023/12/04 07:42:57;;;;;;;;;;;-3275.90;76.90;;;;;;5048714;28;20028;-73
2023/12/04 07:45:30;;;;;;;;;;;-3275.90;76.70;;;;;;5049662;28;19926;-73
2023/12/04 07:48:05;;;;;;;;;;;-3275.90;76.60;;;;;;5048284;28;19931;-73
2023/12/04 07:50:38;;;;;;;;;;;-3275.90;76.60;;;;;;5050257;28;19925;-73
2023/12/04 07:53:13;;;;;;;;;;;-3275.90;76.50;;;;;;5049577;28;20003;-74
2023/12/04 07:55:48;;;;;;;;;;;-3275.90;76.50;;;;;;5050077;28;19952;-73
2023/12/04 07:58:21;;;;;;;;;;;-3275.90;76.50;;;;;;5048374;28;19968;-72
2023/12/04 08:00:54;;;;;;;;;;;-3275.90;76.80;;;;;;5049473;28;19931;-72
2023/12/04 08:03:28;;;;;;;;;;;-3275.90;76.70;;;;;;5041382;28;20334;-73
2023/12/04 08:06:03;;;;;;;;;;;-3276.00;76.60;;;;;;5049284;28;20005;-73
2023/12/04 08:08:36;;;;;;;;;;;-3276.00;76.30;;;;;;5049614;28;19964;-73
2023/12/04 08:11:13;;;;;;;;;;;-3275.90;76.00;;;;;;5049015;28;19925;-67
2023/12/04 08:13:46;;;;;;;;;;;-3276.00;76.20;;;;;;5031850;28;19929;-66
2023/12/04 08:16:20;;;;;;;;;;;-3276.00;76.30;;;;;;5048034;28;19972;-66
2023/12/04 08:18:54;;;;;;;;;;;-3276.00;76.20;;;;;;5049392;28;19929;-68
2023/12/04 08:21:30;;;;;;;;;;;-3276.00;76.10;;;;;;5049645;28;19925;-67
2023/12/04 08:24:03;;;;;;;;;;;-3276.00;75.80;;;;;;5047549;28;20012;-68
2023/12/04 08:26:36;;;;;;;;;;;-3276.00;75.70;;;;;;5049576;28;19932;-66
2023/12/04 08:29:09;;;;;;;;;;;-3276.00;75.60;;;;;;5048715;28;19971;-65
2023/12/04 08:31:42;;;;;;;;;;;-3276.00;75.60;;;;;;5049431;28;19956;-67
2023/12/04 08:34:16;;;;;;;;;;;-3276.00;75.90;;;;;;5023253;28;19932;-66
2023/12/04 08:36:49;;;;;;;;;;;-3276.00;75.70;;;;;;5048772;28;19924;-67
2023/12/04 08:39:22;;;;;;;;;;;-3276.10;75.70;;;;;;5049466;28;19925;-66
2023/12/04 08:41:55;;;;;;;;;;;-3276.10;75.70;;;;;;5048353;28;19925;-66
2023/12/04 08:44:28;;;;;;;;;;;-3276.20;75.60;;;;;;5048763;28;20374;-67
2023/12/04 08:47:01;;;;;;;;;;;-3276.20;75.60;;;;;;5048243;28;19991;-67
2023/12/04 08:49:35;;;;;;;;;;;-3276.20;75.60;;;;;;5047771;28;19931;-67
2023/12/04 08:52:09;;;;;;;;;;;-3276.10;75.60;;;;;;5049408;28;20398;-66
2023/12/04 08:54:42;;;;;;;;;;;-3276.20;75.40;;;;;;5049382;28;19925;-66
2023/12/04 09:42:01;;;;;;;;;;;-3276.60;74.10;;;;;;5036071;28;19944;-71
2023/12/04 09:44:36;;;;;;;;;;;-3276.60;74.10;;;;;;5051320;28;19925;-70
2023/12/04 09:47:10;;;;;;;;;;;-3276.60;73.60;;;;;;5051089;28;20020;-71
2023/12/04 09:49:43;;;;;;;;;;;-3276.60;73.80;;;;;;5051633;28;19932;-71
2023/12/04 09:52:18;;;;;;;;;;;-3276.70;73.80;;;;;;5051557;28;20012;-70
2023/12/04 09:54:52;;;;;;;;;;;0.00;73.70;;;;;;5050916;28;19933;-70
2023/12/04 09:57:27;;;;;;;;;;;0.00;73.30;;;;;;5048889;28;19928;-71
2023/12/04 10:00:01;;;;;;;;;;;0.20;73.40;;;;;;5051125;28;19940;-69
2023/12/04 10:02:40;;;;;;;;;;;0.10;73.20;;;;;;5050876;28;19925;-70
2023/12/04 10:05:13;;;;;;;;;;;0.20;73.20;;;;;;5052297;28;19924;-70
2023/12/04 10:07:46;;;;;;;;;;;0.20;73.10;;;;;;5050610;28;20002;-69
2023/12/04 10:10:19;;;;;;;;;;;0.30;73.00;;;;;;5049820;28;19933;-69
2023/12/04 10:12:55;;;;;;;;;;;0.20;73.10;;;;;;5049257;28;20358;-70
2023/12/04 10:15:28;;;;;;;;;;;0.20;73.20;;;;;;5050817;28;19995;-70
2023/12/04 10:21:37;;;;;;;;;;;0.20;72.90;;;;;;5046743;28;20418;-71
2023/12/04 10:24:10;;;;;;;;;;;0.20;73.00;;;;;;5049015;28;19937;-71
2023/12/04 10:26:50;;;;;;;;;;;0.20;72.90;;;;;;5050889;28;20027;-70
2023/12/04 10:29:26;;;;;;;;;;;0.20;72.90;;;;;;5049414;28;19931;-71
2023/12/04 10:32:00;;;;;;;;;;;0.20;73.00;;;;;;5050510;28;20437;-63
2023/12/04 10:34:33;;;;;;;;;;;0.20;73.10;;;;;;5050430;28;20383;-62
2023/12/04 10:37:06;;;;;;;;;;;0.20;73.20;;;;;;5049961;28;20379;-61
2023/12/04 10:39:46;;;;;;;;;;;0.10;73.30;;;;;;5050105;28;19928;-62
2023/12/04 10:42:30;;;;;;;;;;;0.10;73.60;;;;;;5049870;28;19924;-61
2023/12/04 10:45:06;;;;;;;;;;;0.20;73.50;;;;;;5049573;28;20011;-65
2023/12/04 10:47:39;;;;;;;;;;;0.20;73.60;;;;;;5050332;28;19928;-60
2023/12/04 10:50:13;;;;;;;;;;;0.20;73.40;;;;;;5049971;28;19933;-62
2023/12/04 10:52:53;;;;;;;;;;;0.20;73.60;;;;;;5049965;28;19925;-63
2023/12/04 10:55:26;;;;;;;;;;;0.20;73.50;;;;;;5049176;28;20155;-63
2023/12/04 10:58:00;;;;;;;;;;;0.20;73.30;;;;;;5050442;28;19924;-64
2023/12/04 11:00:35;;;;;;;;;;;0.20;73.10;;;;;;5048530;28;19933;-63
2023/12/04 11:06:48;;;;;;;;;;;0.20;73.20;;;;;;5046231;28;20002;-62
2023/12/04 11:09:25;;;;;;;;;;;0.20;73.10;;;;;;5049796;28;19978;-61
2023/12/04 11:12:03;;;;;;;;;;;0.20;73.00;;;;;;5050052;28;19933;-62
2023/12/04 11:18:15;;;;;;;;;;;0.30;73.10;;;;;;5047568;28;19924;-62
2023/12/04 11:20:51;;;;;;;;;;;0.30;72.90;;;;;;5049489;28;19924;-62
2023/12/04 11:23:24;;;;;;;;;;;0.30;72.90;;;;;;5049098;28;19978;-62
2023/12/04 11:25:57;;;;;;;;;;;0.40;72.90;;;;;;5047872;28;20838;-61
2023/12/04 11:28:32;;;;;;;;;;;0.20;72.70;;;;;;5049165;28;19952;-62
2023/12/04 11:31:08;;;;;;;;;;;0.20;73.40;;;;;;5046246;28;20391;-63
2023/12/04 11:33:43;;;;;;;;;;;0.20;73.50;;;;;;5049467;28;20364;-61
2023/12/04 11:36:16;;;;;;;;;;;0.40;73.20;;;;;;5049393;28;19933;-63
2023/12/04 11:38:49;;;;;;;;;;;0.40;73.20;;;;;;5048967;28;19951;-62
2023/12/04 11:41:23;;;;;;;;;;;0.40;73.10;;;;;;5045472;28;19932;-61
2023/12/04 11:43:57;;;;;;;;;;;0.50;73.10;;;;;;5048092;28;19970;-62
2023/12/04 11:46:31;;;;;;;;;;;0.50;73.10;;;;;;5049301;28;20321;-63
2023/12/04 11:49:29;;;;;;;;;;;0.60;72.90;;;;;;5048114;28;20372;-63
2023/12/04 11:52:04;;;;;;;;;;;0.50;72.60;;;;;;5049820;28;19929;-62
2023/12/04 11:54:57;;;;;;;;;;;0.60;72.60;;;;;;5048246;28;19933;-62
2023/12/04 11:57:34;;;;;;;;;;;0.60;72.40;;;;;;5048331;28;20011;-61
2023/12/04 12:03:21;;;;;;;;;;;0.60;72.60;;;;;;5048608;28;19920;-63
2023/12/04 12:05:56;;;;;;;;;;;0.60;72.80;;;;;;5048017;28;20020;-61
2023/12/04 12:08:29;;;;;;;;;;;0.60;73.00;;;;;;5023713;28;20008;-62
2023/12/04 12:11:02;;;;;;;;;;;0.70;72.80;;;;;;5048549;28;20376;-63
2023/12/04 12:13:42;;;;;;;;;;;0.80;72.70;;;;;;5047717;28;19932;-62
2023/12/04 12:16:15;;;;;;;;;;;0.80;72.70;;;;;;5048466;28;19931;-62
2023/12/04 12:18:48;;;;;;;;;;;0.80;72.40;;;;;;5048748;28;19924;-62
2023/12/04 12:21:23;;;;;;;;;;;0.80;72.30;;;;;;5049190;28;20008;-62
2023/12/04 12:23:56;;;;;;;;;;;0.90;72.40;;;;;;5046558;28;19933;-63
2023/12/04 12:26:30;;;;;;;;;;;0.80;72.40;;;;;;5046783;28;19931;-62
2023/12/04 12:29:03;;;;;;;;;;;0.70;72.60;;;;;;5048829;28;19932;-63
2023/12/04 12:31:36;;;;;;;;;;;0.70;72.70;;;;;;5049512;28;19925;-63
2023/12/04 12:34:09;;;;;;;;;;;0.70;72.80;;;;;;5047811;28;19982;-63
2023/12/04 12:36:43;;;;;;;;;;;0.70;72.70;;;;;;5048762;28;19933;-62
2023/12/04 12:39:19;;;;;;;;;;;0.80;72.80;;;;;;5048292;28;19940;-62
2023/12/04 12:41:58;;;;;;;;;;;0.90;72.60;;;;;;5025868;28;19928;-63
2023/12/04 12:44:39;;;;;;;;;;;0.90;72.30;;;;;;5052162;28;20322;-63
2023/12/04 12:47:15;;;;;;;;;;;1.00;72.20;;;;;;5051517;28;20295;-63
2023/12/04 12:49:48;;;;;;;;;;;1.00;72.20;;;;;;5050997;28;19929;-63
2023/12/04 12:52:22;;;;;;;;;;;1.00;72.30;;;;;;5052914;28;19924;-73
2023/12/04 12:54:56;;;;;;;;;;;1.00;72.30;;;;;;5050588;28;19936;-73
2023/12/04 12:57:29;;;;;;;;;;;1.00;72.20;;;;;;5052270;28;19928;-73
2023/12/04 13:00:05;;;;;;;;;;;1.00;72.10;;;;;;5050565;28;19936;-73
2023/12/04 13:02:38;;;;;;;;;;;1.10;72.00;;;;;;5053267;28;19964;-73
2023/12/04 13:05:11;;;;;;;;;;;1.10;71.80;;;;;;5052419;28;19928;-73
2023/12/04 13:07:45;;;;;;;;;;;1.10;71.90;;;;;;5052863;28;19952;-73
2023/12/04 13:10:26;;;;;;;;;;;1.00;71.80;;;;;;5051786;28;20340;-73
2023/12/04 13:13:00;;;;;;;;;;;1.00;72.10;;;;;;5051862;28;19962;-74
2023/12/04 13:15:33;;;;;;;;;;;0.90;72.00;;;;;;5052233;28;19935;-72
2023/12/04 13:18:06;;;;;;;;;;;0.90;72.00;;;;;;5051164;28;19998;-72
2023/12/04 13:20:39;;;;;;;;;;;0.80;71.90;;;;;;5049204;28;19929;-74
2023/12/04 13:23:14;;;;;;;;;;;0.70;72.10;;;;;;5046167;28;19932;-72
2023/12/04 13:25:47;;;;;;;;;;;0.80;72.50;;;;;;5043749;28;19956;-72
2023/12/04 13:28:20;;;;;;;;;;;0.70;72.60;;;;;;5051510;28;19931;-73
2023/12/04 13:30:55;;;;;;;;;;;0.80;72.70;;;;;;5050611;28;20008;-73
2023/12/04 13:33:28;;;;;;;;;;;0.80;72.50;;;;;;5050856;28;19936;-73
2023/12/04 13:36:01;;;;;;;;;;;0.80;72.60;;;;;;5041884;28;19929;-74
2023/12/04 13:38:36;;;;;;;;;;;0.80;72.90;;;;;;5050768;28;19935;-73
2023/12/04 13:43:49;;;;;;;;;;;0.80;73.00;;;;;;5047028;28;19933;-73
2023/12/04 13:44:02;;;;;;;;;;;0.70;73.40;;;;;;5049416;28;19932;-73
2023/12/04 13:46:35;;;;;;;;;;;0.70;73.50;;;;;;5049823;28;19931;-72
2023/12/04 13:49:08;;;;;;;;;;;0.70;73.60;;;;;;5048748;28;19968;-72
2023/12/04 13:51:39;;;;;;;;;;;0.60;73.50;;;;;;5047219;28;19933;-73
2023/12/04 13:54:20;;;;;;;;;;;0.60;74.00;;;;;;5049469;28;19947;-73
2023/12/04 13:56:54;;;;;;;;;;;0.70;74.10;;;;;;5050623;28;19924;-73
2023/12/04 13:59:32;;;;;;;;;;;0.70;74.20;;;;;;5048333;28;20688;-72
2023/12/04 14:02:11;;;;;;;;;;;0.60;74.60;;;;;;5044291;28;20011;-71
2023/12/04 14:04:44;;;;;;;;;;;0.60;74.80;;;;;;5047998;28;19982;-71
2023/12/04 14:07:18;;;;;;;;;;;0.60;75.10;;;;;;5049078;28;20384;-70
2023/12/04 14:09:53;;;;;;;;;;;0.70;75.10;;;;;;5049468;28;19932;-69
2023/12/04 14:12:26;;;;;;;;;;;0.60;75.50;;;;;;5046026;28;19982;-71
2023/12/04 14:14:59;;;;;;;;;;;0.60;75.80;;;;;;5047753;28;19933;-71
2023/12/04 14:17:33;;;;;;;;;;;0.60;75.90;;;;;;5047392;28;19929;-71
2023/12/04 14:20:12;;;;;;;;;;;0.60;76.00;;;;;;5050562;28;19932;-70
2023/12/04 14:22:46;;;;;;;;;;;0.60;76.10;;;;;;5047824;28;19944;-71
2023/12/04 14:25:23;;;;;;;;;;;0.60;76.30;;;;;;5042708;28;19925;-70
2023/12/04 14:27:56;;;;;;;;;;;0.50;76.40;;;;;;5041026;28;20017;-71
2023/12/04 14:30:30;;;;;;;;;;;0.60;76.40;;;;;;5045617;28;19929;-71
2023/12/04 14:33:03;;;;;;;;;;;0.70;76.50;;;;;;5046725;28;19932;-70
2023/12/04 14:35:37;;;;;;;;;;;0.60;76.30;;;;;;5050048;28;19932;-70
2023/12/04 14:38:10;;;;;;;;;;;0.60;76.50;;;;;;5050779;28;19960;-72
2023/12/04 14:40:45;;;;;;;;;;;0.60;76.60;;;;;;5049158;28;19924;-71
2023/12/04 14:43:18;;;;;;;;;;;0.70;76.70;;;;;;4743251;28;8797832;-71
2023/12/04 14:46:01;;;;;;;;;;;0.60;76.60;;;;;;5048221;28;20035;-71
2023/12/04 14:48:41;;;;;;;;;;;0.70;76.60;;;;;;5048213;28;20591;-70
2023/12/04 14:51:14;;;;;;;;;;;0.60;76.80;;;;;;5050373;28;20015;-72
2023/12/04 14:53:50;;;;;;;;;;;0.60;77.00;;;;;;5049982;28;19928;-71
2023/12/04 15:08:26;;;;;;;;;;;0.50;77.60;;;;;;5047131;28;19928;-70
2023/12/04 15:11:20;;;;;;;;;;;0.50;77.70;;;;;;5049823;28;19932;-73
2023/12/04 15:14:00;;;;;;;;;;;0.50;78.00;;;;;;5049429;28;19933;-73
2023/12/04 15:16:35;;;;;;;;;;;0.40;78.30;;;;;;5044252;28;20375;-72
2023/12/04 15:22:05;;;;;;;;;;;0.40;78.30;;;;;;5039944;28;19973;-74
2023/12/04 15:24:41;;;;;;;;;;;0.40;78.50;;;;;;5028982;28;20386;-73
2023/12/04 15:27:14;;;;;;;;;;;0.50;78.40;;;;;;5048882;28;20007;-74
2023/12/04 15:29:48;;;;;;;;;;;0.50;78.60;;;;;;5049463;28;19936;-73
2023/12/04 15:32:21;;;;;;;;;;;0.50;78.40;;;;;;5050382;28;19925;-74
2023/12/04 15:34:53;;;;;;;;;;;0.40;78.80;;;;;;5046293;28;19925;-73
2023/12/04 15:37:20;;;;;;;;;;;0.50;78.70;;;;;;5047760;28;19982;-74
2023/12/04 15:39:54;;;;;;;;;;;0.50;78.70;;;;;;5047242;28;19929;-74
2023/12/04 15:42:28;;;;;;;;;;;0.50;78.60;;;;;;5048373;28;19947;-73
2023/12/04 15:45:02;;;;;;;;;;;0.50;78.70;;;;;;5043544;28;19939;-73
2023/12/04 15:47:36;;;;;;;;;;;0.40;78.70;;;;;;5045310;28;19968;-73
2023/12/04 15:50:10;;;;;;;;;;;0.40;79.10;;;;;;5049014;28;19932;-74
2023/12/04 15:52:43;;;;;;;;;;;0.40;79.40;;;;;;5047420;28;20037;-74